sensor_id;sensor_type;location;lat;lon;timestamp;temperature;humidity
53653;DHT22;39553;52.954;5.932;2023-04-03T00:01:14;2.10;99.90
53653;DHT22;39553;52.954;5.932;2023-04-03T00:03:40;2.00;99.90
53653;DHT22;39553;52.954;5.932;2023-04-03T00:06:07;1.80;99.90
53653;DHT22;39553;52.954;5.932;2023-04-03T00:08:35;1.80;99.90
53653;DHT22;39553;52.954;5.932;2023-04-03T00:11:01;1.70;99.90
53653;DHT22;39553;52.954;5.932;2023-04-03T00:13:27;1.70;99.90
53653;DHT22;39553;52.954;5.932;2023-04-03T00:15:53;1.70;99.90
53653;DHT22;39553;52.954;5.932;2023-04-03T00:18:19;2.40;99.90
53653;DHT22;39553;52.954;5.932;2023-04-03T00:20:45;1.60;99.90
53653;DHT22;39553;52.954;5.932;2023-04-03T00:23:11;1.60;99.90
53653;DHT22;39553;52.954;5.932;2023-04-03T00:25:37;1.60;99.90
53653;DHT22;39553;52.954;5.932;2023-04-03T00:28:04;1.50;99.90
53653;DHT22;39553;52.954;5.932;2023-04-03T00:30:30;1.50;99.90
53653;DHT22;39553;52.954;5.932;2023-04-03T00:32:57;1.50;99.90
53653;DHT22;39553;52.954;5.932;2023-04-03T00:35:24;1.50;99.90
53653;DHT22;39553;52.954;5.932;2023-04-03T00:37:53;1.40;99.90
53653;DHT22;39553;52.954;5.932;2023-04-03T00:40:21;1.70;99.90
53653;DHT22;39553;52.954;5.932;2023-04-03T00:42:49;1.40;99.90
53653;DHT22;39553;52.954;5.932;2023-04-03T00:47:58;1.40;99.90
53653;DHT22;39553;52.954;5.932;2023-04-03T00:50:27;1.30;99.90
53653;DHT22;39553;52.954;5.932;2023-04-03T00:52:54;1.30;99.90
53653;DHT22;39553;52.954;5.932;2023-04-03T00:55:20;1.30;99.90
53653;DHT22;39553;52.954;5.932;2023-04-03T00:57:47;1.20;99.90
53653;DHT22;39553;52.954;5.932;2023-04-03T01:00:17;1.20;99.90
53653;DHT22;39553;52.954;5.932;2023-04-03T01:02:44;1.20;99.90
53653;DHT22;39553;52.954;5.932;2023-04-03T01:05:10;1.10;99.90
53653;DHT22;39553;52.954;5.932;2023-04-03T01:07:36;1.20;99.90
53653;DHT22;39553;52.954;5.932;2023-04-03T01:10:11;1.10;99.90
53653;DHT22;39553;52.954;5.932;2023-04-03T01:12:41;0.30;99.90
53653;DHT22;39553;52.954;5.932;2023-04-03T01:15:12;1.10;99.90
53653;DHT22;39553;52.954;5.932;2023-04-03T01:25:23;1.00;99.90
53653;DHT22;39553;52.954;5.932;2023-04-03T01:27:50;1.20;99.90
53653;DHT22;39553;52.954;5.932;2023-04-03T01:30:19;0.90;99.90
53653;DHT22;39553;52.954;5.932;2023-04-03T01:32:46;0.90;99.90
53653;DHT22;39553;52.954;5.932;2023-04-03T01:35:12;0.80;99.90
53653;DHT22;39553;52.954;5.932;2023-04-03T01:37:38;0.80;99.90
53653;DHT22;39553;52.954;5.932;2023-04-03T01:40:05;0.80;99.90
53653;DHT22;39553;52.954;5.932;2023-04-03T01:42:31;0.70;99.90
53653;DHT22;39553;52.954;5.932;2023-04-03T01:44:56;0.70;99.90
53653;DHT22;39553;52.954;5.932;2023-04-03T01:47:22;0.90;99.90
53653;DHT22;39553;52.954;5.932;2023-04-03T01:49:48;0.70;99.90
53653;DHT22;39553;52.954;5.932;2023-04-03T01:52:14;0.70;99.90
53653;DHT22;39553;52.954;5.932;2023-04-03T01:54:40;1.10;99.90
53653;DHT22;39553;52.954;5.932;2023-04-03T01:57:06;0.60;99.90
53653;DHT22;39553;52.954;5.932;2023-04-03T01:59:31;0.60;99.90
53653;DHT22;39553;52.954;5.932;2023-04-03T02:01:57;0.50;99.90
53653;DHT22;39553;52.954;5.932;2023-04-03T02:04:23;0.50;99.90
53653;DHT22;39553;52.954;5.932;2023-04-03T02:06:49;0.50;99.90
53653;DHT22;39553;52.954;5.932;2023-04-03T02:09:14;0.50;99.90
53653;DHT22;39553;52.954;5.932;2023-04-03T02:11:40;0.50;99.90
53653;DHT22;39553;52.954;5.932;2023-04-03T02:14:06;0.40;99.90
53653;DHT22;39553;52.954;5.932;2023-04-03T02:16:33;0.40;99.90
53653;DHT22;39553;52.954;5.932;2023-04-03T02:18:59;0.40;99.90
53653;DHT22;39553;52.954;5.932;2023-04-03T02:21:25;0.40;99.90
53653;DHT22;39553;52.954;5.932;2023-04-03T02:23:51;0.40;99.90
53653;DHT22;39553;52.954;5.932;2023-04-03T02:26:17;0.40;99.90
53653;DHT22;39553;52.954;5.932;2023-04-03T02:28:42;0.50;99.90
53653;DHT22;39553;52.954;5.932;2023-04-03T02:31:09;0.30;99.90
53653;DHT22;39553;52.954;5.932;2023-04-03T02:33:35;0.30;99.90
53653;DHT22;39553;52.954;5.932;2023-04-03T02:36:06;0.30;99.90
53653;DHT22;39553;52.954;5.932;2023-04-03T02:38:32;0.30;99.90
53653;DHT22;39553;52.954;5.932;2023-04-03T02:41:04;0.30;99.90
53653;DHT22;39553;52.954;5.932;2023-04-03T02:43:30;0.20;99.90
53653;DHT22;39553;52.954;5.932;2023-04-03T02:45:56;0.20;99.90
53653;DHT22;39553;52.954;5.932;2023-04-03T02:48:22;0.20;99.90
53653;DHT22;39553;52.954;5.932;2023-04-03T02:50:48;0.20;99.90
53653;DHT22;39553;52.954;5.932;2023-04-03T02:53:14;0.10;99.90
53653;DHT22;39553;52.954;5.932;2023-04-03T02:55:40;0.30;99.90
53653;DHT22;39553;52.954;5.932;2023-04-03T02:58:06;0.10;99.90
53653;DHT22;39553;52.954;5.932;2023-04-03T03:00:32;0.10;99.90
53653;DHT22;39553;52.954;5.932;2023-04-03T03:02:58;0.00;99.90
53653;DHT22;39553;52.954;5.932;2023-04-03T03:05:24;0.90;99.90
53653;DHT22;39553;52.954;5.932;2023-04-03T03:07:49;0.00;99.90
53653;DHT22;39553;52.954;5.932;2023-04-03T03:10:15;0.00;99.90
53653;DHT22;39553;52.954;5.932;2023-04-03T03:12:41;0.00;99.90
53653;DHT22;39553;52.954;5.932;2023-04-03T03:15:07;0.00;99.90
53653;DHT22;39553;52.954;5.932;2023-04-03T03:17:33;0.00;99.90
53653;DHT22;39553;52.954;5.932;2023-04-03T03:19:59;-0.10;99.90
53653;DHT22;39553;52.954;5.932;2023-04-03T03:22:25;-0.10;99.90
53653;DHT22;39553;52.954;5.932;2023-04-03T03:24:51;-0.10;99.90
53653;DHT22;39553;52.954;5.932;2023-04-03T03:27:17;-0.10;99.90
53653;DHT22;39553;52.954;5.932;2023-04-03T03:29:43;-0.20;99.90
53653;DHT22;39553;52.954;5.932;2023-04-03T03:32:08;-0.20;99.90
53653;DHT22;39553;52.954;5.932;2023-04-03T03:34:34;-0.20;99.90
53653;DHT22;39553;52.954;5.932;2023-04-03T03:37:00;-0.20;99.90
53653;DHT22;39553;52.954;5.932;2023-04-03T03:39:26;-0.20;99.90
53653;DHT22;39553;52.954;5.932;2023-04-03T03:41:52;-0.10;99.90
53653;DHT22;39553;52.954;5.932;2023-04-03T03:44:19;-0.20;99.90
53653;DHT22;39553;52.954;5.932;2023-04-03T03:46:45;-0.20;99.90
53653;DHT22;39553;52.954;5.932;2023-04-03T03:49:11;-0.30;99.90
53653;DHT22;39553;52.954;5.932;2023-04-03T03:51:37;-0.30;99.90
53653;DHT22;39553;52.954;5.932;2023-04-03T03:54:04;-0.10;99.90
53653;DHT22;39553;52.954;5.932;2023-04-03T03:56:30;-0.30;99.90
53653;DHT22;39553;52.954;5.932;2023-04-03T03:58:55;-0.40;99.90
53653;DHT22;39553;52.954;5.932;2023-04-03T04:01:22;-0.30;99.90
53653;DHT22;39553;52.954;5.932;2023-04-03T04:03:48;-0.40;99.90
53653;DHT22;39553;52.954;5.932;2023-04-03T04:06:15;0.30;99.90
53653;DHT22;39553;52.954;5.932;2023-04-03T04:08:41;-0.50;99.90
53653;DHT22;39553;52.954;5.932;2023-04-03T04:11:07;-0.50;99.90
53653;DHT22;39553;52.954;5.932;2023-04-03T04:13:33;-0.50;99.90
53653;DHT22;39553;52.954;5.932;2023-04-03T04:15:59;-0.50;99.90
53653;DHT22;39553;52.954;5.932;2023-04-03T04:18:25;-0.60;99.90
53653;DHT22;39553;52.954;5.932;2023-04-03T04:20:51;-0.60;99.90
53653;DHT22;39553;52.954;5.932;2023-04-03T04:23:17;-0.60;99.90
53653;DHT22;39553;52.954;5.932;2023-04-03T04:25:48;-0.70;99.90
53653;DHT22;39553;52.954;5.932;2023-04-03T04:28:14;-0.70;99.90
53653;DHT22;39553;52.954;5.932;2023-04-03T04:30:40;-0.70;99.90
53653;DHT22;39553;52.954;5.932;2023-04-03T04:33:06;-0.70;99.90
53653;DHT22;39553;52.954;5.932;2023-04-03T04:35:33;-0.70;99.90
53653;DHT22;39553;52.954;5.932;2023-04-03T04:37:58;-0.80;99.90
53653;DHT22;39553;52.954;5.932;2023-04-03T04:40:25;-0.80;99.90
53653;DHT22;39553;52.954;5.932;2023-04-03T04:42:51;-0.80;99.90
53653;DHT22;39553;52.954;5.932;2023-04-03T04:45:17;-0.80;99.90
53653;DHT22;39553;52.954;5.932;2023-04-03T04:47:43;-0.90;99.90
53653;DHT22;39553;52.954;5.932;2023-04-03T04:50:10;-1.00;99.90
53653;DHT22;39553;52.954;5.932;2023-04-03T04:52:37;-0.60;99.90
53653;DHT22;39553;52.954;5.932;2023-04-03T04:55:03;-0.80;99.90
53653;DHT22;39553;52.954;5.932;2023-04-03T04:57:29;-1.00;99.90
53653;DHT22;39553;52.954;5.932;2023-04-03T04:59:55;-1.00;99.90
53653;DHT22;39553;52.954;5.932;2023-04-03T05:02:21;-1.00;99.90
53653;DHT22;39553;52.954;5.932;2023-04-03T05:04:47;-1.00;99.90
53653;DHT22;39553;52.954;5.932;2023-04-03T05:07:12;-1.00;99.90
53653;DHT22;39553;52.954;5.932;2023-04-03T05:09:38;-1.00;99.90
53653;DHT22;39553;52.954;5.932;2023-04-03T05:12:06;-1.10;99.90
53653;DHT22;39553;52.954;5.932;2023-04-03T05:14:32;-1.00;99.90
53653;DHT22;39553;52.954;5.932;2023-04-03T05:16:58;-1.00;99.90
53653;DHT22;39553;52.954;5.932;2023-04-03T05:19:24;-1.00;99.90
53653;DHT22;39553;52.954;5.932;2023-04-03T05:21:49;-1.00;99.90
53653;DHT22;39553;52.954;5.932;2023-04-03T05:24:16;-1.00;99.90
53653;DHT22;39553;52.954;5.932;2023-04-03T05:26:43;0.20;99.90
53653;DHT22;39553;52.954;5.932;2023-04-03T05:29:09;-1.00;99.90
53653;DHT22;39553;52.954;5.932;2023-04-03T05:31:35;-1.00;99.90
53653;DHT22;39553;52.954;5.932;2023-04-03T05:34:01;-1.00;99.90
53653;DHT22;39553;52.954;5.932;2023-04-03T05:36:27;-1.00;99.90
53653;DHT22;39553;52.954;5.932;2023-04-03T05:38:52;-0.90;99.90
53653;DHT22;39553;52.954;5.932;2023-04-03T05:41:19;-0.50;99.90
53653;DHT22;39553;52.954;5.932;2023-04-03T05:43:46;-0.80;99.90
53653;DHT22;39553;52.954;5.932;2023-04-03T05:46:14;-0.80;99.90
53653;DHT22;39553;52.954;5.932;2023-04-03T05:48:41;-0.80;99.90
53653;DHT22;39553;52.954;5.932;2023-04-03T05:51:07;-0.80;99.90
53653;DHT22;39553;52.954;5.932;2023-04-03T05:53:35;-0.70;99.90
53653;DHT22;39553;52.954;5.932;2023-04-03T05:56:05;-1.40;99.90
53653;DHT22;39553;52.954;5.932;2023-04-03T05:58:30;-0.60;99.90
53653;DHT22;39553;52.954;5.932;2023-04-03T06:00:56;-0.40;99.90
53653;DHT22;39553;52.954;5.932;2023-04-03T06:03:23;-0.20;99.90
53653;DHT22;39553;52.954;5.932;2023-04-03T06:05:48;0.00;99.90
53653;DHT22;39553;52.954;5.932;2023-04-03T06:08:15;0.20;99.90
53653;DHT22;39553;52.954;5.932;2023-04-03T06:10:41;0.30;99.90
53653;DHT22;39553;52.954;5.932;2023-04-03T06:13:06;0.30;99.90
53653;DHT22;39553;52.954;5.932;2023-04-03T06:15:33;0.30;99.90
53653;DHT22;39553;52.954;5.932;2023-04-03T06:17:59;0.20;99.90
53653;DHT22;39553;52.954;5.932;2023-04-03T06:20:25;0.20;99.90
53653;DHT22;39553;52.954;5.932;2023-04-03T06:22:51;0.10;99.90
53653;DHT22;39553;52.954;5.932;2023-04-03T06:25:17;0.20;99.90
53653;DHT22;39553;52.954;5.932;2023-04-03T06:27:45;0.20;99.90
53653;DHT22;39553;52.954;5.932;2023-04-03T06:30:11;0.30;99.90
53653;DHT22;39553;52.954;5.932;2023-04-03T06:32:38;0.50;99.90
53653;DHT22;39553;52.954;5.932;2023-04-03T06:35:04;0.80;99.90
53653;DHT22;39553;52.954;5.932;2023-04-03T06:37:30;1.20;99.90
53653;DHT22;39553;52.954;5.932;2023-04-03T06:39:58;1.60;99.90
53653;DHT22;39553;52.954;5.932;2023-04-03T06:42:25;2.20;99.90
53653;DHT22;39553;52.954;5.932;2023-04-03T06:44:51;2.80;99.90
53653;DHT22;39553;52.954;5.932;2023-04-03T06:47:17;3.60;99.90
53653;DHT22;39553;52.954;5.932;2023-04-03T06:49:44;3.80;99.90
53653;DHT22;39553;52.954;5.932;2023-04-03T06:52:10;4.30;99.90
53653;DHT22;39553;52.954;5.932;2023-04-03T06:54:38;4.80;99.90
53653;DHT22;39553;52.954;5.932;2023-04-03T06:57:04;5.10;99.90
53653;DHT22;39553;52.954;5.932;2023-04-03T06:59:29;5.40;99.90
53653;DHT22;39553;52.954;5.932;2023-04-03T07:01:55;5.70;99.90
53653;DHT22;39553;52.954;5.932;2023-04-03T07:04:21;5.80;99.90
53653;DHT22;39553;52.954;5.932;2023-04-03T07:06:47;5.50;99.90
53653;DHT22;39553;52.954;5.932;2023-04-03T07:09:16;4.80;99.90
53653;DHT22;39553;52.954;5.932;2023-04-03T07:11:42;4.20;99.90
53653;DHT22;39553;52.954;5.932;2023-04-03T07:14:08;3.70;99.90
53653;DHT22;39553;52.954;5.932;2023-04-03T07:16:34;3.40;99.90
53653;DHT22;39553;52.954;5.932;2023-04-03T07:19:01;3.20;99.90
53653;DHT22;39553;52.954;5.932;2023-04-03T07:21:27;3.00;99.90
53653;DHT22;39553;52.954;5.932;2023-04-03T07:23:53;2.90;99.90
53653;DHT22;39553;52.954;5.932;2023-04-03T07:26:20;2.90;99.90
53653;DHT22;39553;52.954;5.932;2023-04-03T07:28:48;2.90;99.90
53653;DHT22;39553;52.954;5.932;2023-04-03T07:31:16;2.80;99.90
53653;DHT22;39553;52.954;5.932;2023-04-03T07:33:43;2.90;99.90
53653;DHT22;39553;52.954;5.932;2023-04-03T07:36:10;2.90;99.90
53653;DHT22;39553;52.954;5.932;2023-04-03T07:38:40;3.00;99.90
53653;DHT22;39553;52.954;5.932;2023-04-03T07:41:06;3.00;99.90
53653;DHT22;39553;52.954;5.932;2023-04-03T07:43:33;3.00;99.90
53653;DHT22;39553;52.954;5.932;2023-04-03T07:45:59;3.10;99.90
53653;DHT22;39553;52.954;5.932;2023-04-03T07:48:26;3.10;99.90
53653;DHT22;39553;52.954;5.932;2023-04-03T07:50:52;3.10;99.90
53653;DHT22;39553;52.954;5.932;2023-04-03T07:53:18;3.20;99.90
53653;DHT22;39553;52.954;5.932;2023-04-03T07:55:46;3.30;99.90
53653;DHT22;39553;52.954;5.932;2023-04-03T07:58:16;3.50;99.90
53653;DHT22;39553;52.954;5.932;2023-04-03T08:00:43;3.40;99.90
53653;DHT22;39553;52.954;5.932;2023-04-03T08:03:10;3.50;99.90
53653;DHT22;39553;52.954;5.932;2023-04-03T08:05:38;3.60;99.90
53653;DHT22;39553;52.954;5.932;2023-04-03T08:08:05;4.10;99.90
53653;DHT22;39553;52.954;5.932;2023-04-03T08:10:32;3.80;99.90
53653;DHT22;39553;52.954;5.932;2023-04-03T08:12:58;3.80;99.30
53653;DHT22;39553;52.954;5.932;2023-04-03T08:15:24;3.90;99.10
53653;DHT22;39553;52.954;5.932;2023-04-03T08:17:50;4.00;99.50
53653;DHT22;39553;52.954;5.932;2023-04-03T08:20:16;4.10;99.50
53653;DHT22;39553;52.954;5.932;2023-04-03T08:22:42;4.20;99.90
53653;DHT22;39553;52.954;5.932;2023-04-03T08:25:08;4.40;99.30
53653;DHT22;39553;52.954;5.932;2023-04-03T08:27:34;4.60;99.60
53653;DHT22;39553;52.954;5.932;2023-04-03T08:30:00;5.30;98.80
53653;DHT22;39553;52.954;5.932;2023-04-03T08:32:26;6.40;98.80
53653;DHT22;39553;52.954;5.932;2023-04-03T08:34:53;7.50;98.30
53653;DHT22;39553;52.954;5.932;2023-04-03T08:37:19;8.60;97.70
53653;DHT22;39553;52.954;5.932;2023-04-03T08:39:45;9.40;97.40
53653;DHT22;39553;52.954;5.932;2023-04-03T08:42:35;9.80;95.30
53653;DHT22;39553;52.954;5.932;2023-04-03T08:45:15;10.10;76.90
53653;DHT22;39553;52.954;5.932;2023-04-03T08:48:03;10.30;87.80
53653;DHT22;39553;52.954;5.932;2023-04-03T08:50:36;10.40;92.40
53653;DHT22;39553;52.954;5.932;2023-04-03T08:53:03;10.60;92.20
53653;DHT22;39553;52.954;5.932;2023-04-03T08:55:41;10.80;92.30
53653;DHT22;39553;52.954;5.932;2023-04-03T08:58:29;10.70;87.20
53653;DHT22;39553;52.954;5.932;2023-04-03T09:01:00;11.00;90.20
53653;DHT22;39553;52.954;5.932;2023-04-03T09:03:30;11.10;86.30
53653;DHT22;39553;52.954;5.932;2023-04-03T09:06:20;11.40;87.00
53653;DHT22;39553;52.954;5.932;2023-04-03T09:12:06;11.50;66.50
53653;DHT22;39553;52.954;5.932;2023-04-03T09:19:56;12.10;78.00
53653;DHT22;39553;52.954;5.932;2023-04-03T09:22:28;12.10;64.00
53653;DHT22;39553;52.954;5.932;2023-04-03T09:25:17;12.20;74.50
53653;DHT22;39553;52.954;5.932;2023-04-03T09:27:45;12.60;67.00
53653;DHT22;39553;52.954;5.932;2023-04-03T09:30:15;12.30;71.90
53653;DHT22;39553;52.954;5.932;2023-04-03T09:32:44;12.40;64.20
53653;DHT22;39553;52.954;5.932;2023-04-03T09:37:46;12.60;63.20
53653;DHT22;39553;52.954;5.932;2023-04-03T09:42:55;13.20;57.90
53653;DHT22;39553;52.954;5.932;2023-04-03T09:45:30;13.00;59.80
53653;DHT22;39553;52.954;5.932;2023-04-03T09:48:12;13.00;53.70
53653;DHT22;39553;52.954;5.932;2023-04-03T09:53:38;13.40;56.30
53653;DHT22;39553;52.954;5.932;2023-04-03T10:04:13;13.60;57.10
53653;DHT22;39553;52.954;5.932;2023-04-03T10:06:46;14.20;49.40
53653;DHT22;39553;52.954;5.932;2023-04-03T10:09:33;14.10;51.10
53653;DHT22;39553;52.954;5.932;2023-04-03T10:12:09;14.00;43.20
53653;DHT22;39553;52.954;5.932;2023-04-03T10:14:39;14.20;45.60
53653;DHT22;39553;52.954;5.932;2023-04-03T10:26:02;14.10;42.90
53653;DHT22;39553;52.954;5.932;2023-04-03T10:31:21;14.80;43.30
53653;DHT22;39553;52.954;5.932;2023-04-03T10:39:39;14.10;40.30
53653;DHT22;39553;52.954;5.932;2023-04-03T10:42:22;14.00;40.00
53653;DHT22;39553;52.954;5.932;2023-04-03T10:47:59;14.00;40.70
53653;DHT22;39553;52.954;5.932;2023-04-03T10:53:43;14.60;36.10
53653;DHT22;39553;52.954;5.932;2023-04-03T10:56:35;14.80;36.30
53653;DHT22;39553;52.954;5.932;2023-04-03T10:59:45;15.20;39.90
53653;DHT22;39553;52.954;5.932;2023-04-03T11:04:48;14.90;42.80
53653;DHT22;39553;52.954;5.932;2023-04-03T11:07:33;15.10;42.10
53653;DHT22;39553;52.954;5.932;2023-04-03T11:13:44;15.40;31.90
53653;DHT22;39553;52.954;5.932;2023-04-03T11:16:20;15.30;34.60
53653;DHT22;39553;52.954;5.932;2023-04-03T11:19:02;15.20;39.10
53653;DHT22;39553;52.954;5.932;2023-04-03T11:24:34;14.90;35.70
53653;DHT22;39553;52.954;5.932;2023-04-03T11:27:02;14.60;40.40
53653;DHT22;39553;52.954;5.932;2023-04-03T11:29:38;14.60;40.30
53653;DHT22;39553;52.954;5.932;2023-04-03T11:35:00;14.60;33.30
53653;DHT22;39553;52.954;5.932;2023-04-03T11:38:00;14.10;38.60
53653;DHT22;39553;52.954;5.932;2023-04-03T11:40:29;13.30;32.50
53653;DHT22;39553;52.954;5.932;2023-04-03T11:43:07;12.90;39.40
53653;DHT22;39553;52.954;5.932;2023-04-03T11:45:59;12.70;39.70
53653;DHT22;39553;52.954;5.932;2023-04-03T11:53:37;12.50;39.30
53653;DHT22;39553;52.954;5.932;2023-04-03T12:04:12;12.40;38.50
53653;DHT22;39553;52.954;5.932;2023-04-03T12:10:13;11.90;38.90
53653;DHT22;39553;52.954;5.932;2023-04-03T12:12:38;12.10;37.60
53653;DHT22;39553;52.954;5.932;2023-04-03T12:15:38;12.30;39.30
53653;DHT22;39553;52.954;5.932;2023-04-03T12:21:14;13.10;37.10
53653;DHT22;39553;52.954;5.932;2023-04-03T12:30:03;12.70;36.90
53653;DHT22;39553;52.954;5.932;2023-04-03T12:46:51;12.30;39.60
53653;DHT22;39553;52.954;5.932;2023-04-03T12:51:52;13.00;39.80
53653;DHT22;39553;52.954;5.932;2023-04-03T12:54:37;13.20;40.90
53653;DHT22;39553;52.954;5.932;2023-04-03T12:57:25;12.60;39.90
53653;DHT22;39553;52.954;5.932;2023-04-03T12:59:52;12.00;39.10
53653;DHT22;39553;52.954;5.932;2023-04-03T13:02:32;12.50;41.30
53653;DHT22;39553;52.954;5.932;2023-04-03T13:05:09;12.40;38.90
53653;DHT22;39553;52.954;5.932;2023-04-03T13:07:39;12.30;36.50
53653;DHT22;39553;52.954;5.932;2023-04-03T13:12:56;12.50;40.50
53653;DHT22;39553;52.954;5.932;2023-04-03T13:15:23;12.60;37.40
53653;DHT22;39553;52.954;5.932;2023-04-03T13:17:52;12.90;40.40
53653;DHT22;39553;52.954;5.932;2023-04-03T13:20:29;13.50;40.10
53653;DHT22;39553;52.954;5.932;2023-04-03T13:23:01;12.70;38.30
53653;DHT22;39553;52.954;5.932;2023-04-03T13:25:30;12.40;40.30
53653;DHT22;39553;52.954;5.932;2023-04-03T13:27:58;12.20;40.30
53653;DHT22;39553;52.954;5.932;2023-04-03T13:30:29;12.40;40.00
53653;DHT22;39553;52.954;5.932;2023-04-03T13:32:57;12.50;39.30
53653;DHT22;39553;52.954;5.932;2023-04-03T13:38:00;13.60;38.80
53653;DHT22;39553;52.954;5.932;2023-04-03T13:40:26;14.10;38.60
53653;DHT22;39553;52.954;5.932;2023-04-03T13:43:16;14.50;39.40
53653;DHT22;39553;52.954;5.932;2023-04-03T13:48:20;13.70;36.80
53653;DHT22;39553;52.954;5.932;2023-04-03T13:51:01;12.60;38.20
53653;DHT22;39553;52.954;5.932;2023-04-03T13:53:31;12.20;37.30
53653;DHT22;39553;52.954;5.932;2023-04-03T13:56:04;12.10;39.60
53653;DHT22;39553;52.954;5.932;2023-04-03T13:58:32;11.40;40.30
53653;DHT22;39553;52.954;5.932;2023-04-03T14:01:07;11.20;41.50
53653;DHT22;39553;52.954;5.932;2023-04-03T14:06:06;11.00;41.60
53653;DHT22;39553;52.954;5.932;2023-04-03T14:08:32;10.70;41.40
53653;DHT22;39553;52.954;5.932;2023-04-03T14:10:58;10.50;42.70
53653;DHT22;39553;52.954;5.932;2023-04-03T14:13:24;10.40;43.30
53653;DHT22;39553;52.954;5.932;2023-04-03T14:15:50;10.30;44.00
53653;DHT22;39553;52.954;5.932;2023-04-03T14:18:18;10.30;44.30
53653;DHT22;39553;52.954;5.932;2023-04-03T14:20:47;10.10;44.10
53653;DHT22;39553;52.954;5.932;2023-04-03T14:23:14;10.10;45.00
53653;DHT22;39553;52.954;5.932;2023-04-03T14:25:41;10.10;45.50
53653;DHT22;39553;52.954;5.932;2023-04-03T14:28:27;10.20;45.50
53653;DHT22;39553;52.954;5.932;2023-04-03T14:30:56;10.20;44.50
53653;DHT22;39553;52.954;5.932;2023-04-03T14:33:31;10.20;45.00
53653;DHT22;39553;52.954;5.932;2023-04-03T14:36:01;10.20;44.80
53653;DHT22;39553;52.954;5.932;2023-04-03T14:38:30;10.20;44.30
53653;DHT22;39553;52.954;5.932;2023-04-03T14:40:57;10.00;43.40
53653;DHT22;39553;52.954;5.932;2023-04-03T14:43:23;9.90;42.60
53653;DHT22;39553;52.954;5.932;2023-04-03T14:45:50;9.90;44.00
53653;DHT22;39553;52.954;5.932;2023-04-03T14:48:20;9.90;43.60
53653;DHT22;39553;52.954;5.932;2023-04-03T14:50:47;10.00;44.20
53653;DHT22;39553;52.954;5.932;2023-04-03T14:53:14;10.20;43.60
53653;DHT22;39553;52.954;5.932;2023-04-03T14:55:42;10.40;44.50
53653;DHT22;39553;52.954;5.932;2023-04-03T14:58:14;10.60;42.60
53653;DHT22;39553;52.954;5.932;2023-04-03T15:00:41;11.00;43.20
53653;DHT22;39553;52.954;5.932;2023-04-03T15:03:20;11.30;42.40
53653;DHT22;39553;52.954;5.932;2023-04-03T15:05:48;11.50;41.60
53653;DHT22;39553;52.954;5.932;2023-04-03T15:08:23;11.70;42.90
53653;DHT22;39553;52.954;5.932;2023-04-03T15:10:51;11.90;40.20
53653;DHT22;39553;52.954;5.932;2023-04-03T15:13:21;12.00;41.80
53653;DHT22;39553;52.954;5.932;2023-04-03T15:15:48;12.10;41.00
53653;DHT22;39553;52.954;5.932;2023-04-03T15:18:26;12.20;41.60
53653;DHT22;39553;52.954;5.932;2023-04-03T15:20:55;12.60;41.60
53653;DHT22;39553;52.954;5.932;2023-04-03T15:23:21;13.00;41.60
53653;DHT22;39553;52.954;5.932;2023-04-03T15:25:52;13.10;42.00
53653;DHT22;39553;52.954;5.932;2023-04-03T15:28:43;13.00;41.30
53653;DHT22;39553;52.954;5.932;2023-04-03T15:31:09;13.00;41.20
53653;DHT22;39553;52.954;5.932;2023-04-03T15:33:35;13.00;42.20
53653;DHT22;39553;52.954;5.932;2023-04-03T15:36:02;13.10;41.60
53653;DHT22;39553;52.954;5.932;2023-04-03T15:38:28;13.30;41.80
53653;DHT22;39553;52.954;5.932;2023-04-03T15:40:55;13.60;41.60
53653;DHT22;39553;52.954;5.932;2023-04-03T15:43:21;13.70;41.20
53653;DHT22;39553;52.954;5.932;2023-04-03T15:45:49;13.50;41.20
53653;DHT22;39553;52.954;5.932;2023-04-03T15:48:17;13.50;40.80
53653;DHT22;39553;52.954;5.932;2023-04-03T15:50:44;13.50;41.20
53653;DHT22;39553;52.954;5.932;2023-04-03T15:53:10;13.20;40.60
53653;DHT22;39553;52.954;5.932;2023-04-03T15:55:37;13.30;41.10
53653;DHT22;39553;52.954;5.932;2023-04-03T15:58:04;13.00;40.70
53653;DHT22;39553;52.954;5.932;2023-04-03T16:00:30;12.50;40.50
53653;DHT22;39553;52.954;5.932;2023-04-03T16:03:08;12.60;40.30
53653;DHT22;39553;52.954;5.932;2023-04-03T16:05:36;13.20;40.90
53653;DHT22;39553;52.954;5.932;2023-04-03T16:08:03;13.60;40.30
53653;DHT22;39553;52.954;5.932;2023-04-03T16:10:30;13.40;39.70
53653;DHT22;39553;52.954;5.932;2023-04-03T16:12:56;13.60;40.40
53653;DHT22;39553;52.954;5.932;2023-04-03T16:15:23;13.00;40.40
53653;DHT22;39553;52.954;5.932;2023-04-03T16:17:50;12.90;40.50
53653;DHT22;39553;52.954;5.932;2023-04-03T16:20:16;13.10;40.60
53653;DHT22;39553;52.954;5.932;2023-04-03T16:22:43;13.70;40.60
53653;DHT22;39553;52.954;5.932;2023-04-03T16:25:09;14.00;40.00
53653;DHT22;39553;52.954;5.932;2023-04-03T16:27:36;14.20;39.80
53653;DHT22;39553;52.954;5.932;2023-04-03T16:30:02;14.60;40.10
53653;DHT22;39553;52.954;5.932;2023-04-03T16:32:30;14.50;39.60
53653;DHT22;39553;52.954;5.932;2023-04-03T16:34:57;14.70;39.80
53653;DHT22;39553;52.954;5.932;2023-04-03T16:37:23;14.30;40.20
53653;DHT22;39553;52.954;5.932;2023-04-03T16:39:49;14.20;40.50
53653;DHT22;39553;52.954;5.932;2023-04-03T16:42:15;13.90;38.70
53653;DHT22;39553;52.954;5.932;2023-04-03T16:44:41;13.80;40.80
53653;DHT22;39553;52.954;5.932;2023-04-03T16:47:08;13.60;41.20
53653;DHT22;39553;52.954;5.932;2023-04-03T16:49:34;13.30;41.50
53653;DHT22;39553;52.954;5.932;2023-04-03T16:52:02;13.30;42.70
53653;DHT22;39553;52.954;5.932;2023-04-03T16:54:28;13.20;43.00
53653;DHT22;39553;52.954;5.932;2023-04-03T16:56:54;12.80;43.80
53653;DHT22;39553;52.954;5.932;2023-04-03T16:59:20;12.30;44.30
53653;DHT22;39553;52.954;5.932;2023-04-03T17:01:46;11.70;45.20
53653;DHT22;39553;52.954;5.932;2023-04-03T17:04:12;11.20;46.60
53653;DHT22;39553;52.954;5.932;2023-04-03T17:06:41;11.20;47.60
53653;DHT22;39553;52.954;5.932;2023-04-03T17:09:10;11.50;48.00
53653;DHT22;39553;52.954;5.932;2023-04-03T17:11:37;11.90;48.10
53653;DHT22;39553;52.954;5.932;2023-04-03T17:14:04;12.60;48.00
53653;DHT22;39553;52.954;5.932;2023-04-03T17:16:30;12.70;47.50
53653;DHT22;39553;52.954;5.932;2023-04-03T17:18:58;12.40;47.40
53653;DHT22;39553;52.954;5.932;2023-04-03T17:21:24;11.80;48.00
53653;DHT22;39553;52.954;5.932;2023-04-03T17:23:54;11.20;49.20
53653;DHT22;39553;52.954;5.932;2023-04-03T17:26:23;10.50;50.40
53653;DHT22;39553;52.954;5.932;2023-04-03T17:28:49;10.10;51.80
53653;DHT22;39553;52.954;5.932;2023-04-03T17:31:14;9.60;52.70
53653;DHT22;39553;52.954;5.932;2023-04-03T17:33:40;9.40;53.60
53653;DHT22;39553;52.954;5.932;2023-04-03T17:36:06;9.10;53.80
53653;DHT22;39553;52.954;5.932;2023-04-03T17:38:33;8.90;55.00
53653;DHT22;39553;52.954;5.932;2023-04-03T17:41:01;8.70;56.00
53653;DHT22;39553;52.954;5.932;2023-04-03T17:43:27;8.50;56.70
53653;DHT22;39553;52.954;5.932;2023-04-03T17:45:53;8.50;57.30
53653;DHT22;39553;52.954;5.932;2023-04-03T17:48:28;8.40;57.80
53653;DHT22;39553;52.954;5.932;2023-04-03T17:50:54;8.40;59.00